createdAt,value
2023-06-19T00:00:23.277Z,16.33
2023-06-19T00:02:50.304Z,15.33
2023-06-19T00:05:17.260Z,16.87
2023-06-19T00:07:44.283Z,15.53
2023-06-19T00:10:11.267Z,15.00
2023-06-19T00:12:40.818Z,15.87
2023-06-19T00:15:10.633Z,13.53
2023-06-19T00:17:40.229Z,16.60
2023-06-19T00:20:07.731Z,12.57
2023-06-19T00:22:34.713Z,13.53
2023-06-19T00:25:04.069Z,13.97
2023-06-19T00:27:31.061Z,15.13
2023-06-19T00:30:03.569Z,11.63
2023-06-19T00:32:30.851Z,15.30
2023-06-19T00:34:58.171Z,11.97
2023-06-19T00:37:27.629Z,17.77
2023-06-19T00:39:54.445Z,13.23
2023-06-19T00:42:23.431Z,11.43
2023-06-19T00:44:50.209Z,12.33
2023-06-19T00:47:17.036Z,11.53
2023-06-19T00:49:43.813Z,13.63
2023-06-19T00:52:10.628Z,11.83
2023-06-19T00:54:37.410Z,11.70
2023-06-19T00:57:04.490Z,13.33
2023-06-19T00:59:33.952Z,12.60
2023-06-19T01:02:00.909Z,14.87
2023-06-19T01:04:29.160Z,12.47
2023-06-19T01:07:11.436Z,12.63
2023-06-19T01:09:50.158Z,13.30
2023-06-19T01:12:19.601Z,11.20
2023-06-19T01:15:03.067Z,14.30
2023-06-19T01:17:30.309Z,13.13
2023-06-19T01:20:00.256Z,12.73
2023-06-19T01:22:30.841Z,15.17
2023-06-19T01:24:58.516Z,11.80
2023-06-19T01:27:30.861Z,11.67
2023-06-19T01:30:00.668Z,10.77
2023-06-19T01:32:48.245Z,11.73
2023-06-19T01:35:17.317Z,11.60
2023-06-19T01:37:46.009Z,13.47
2023-06-19T01:40:12.999Z,11.13
2023-06-19T01:42:40.010Z,13.70
2023-06-19T01:45:09.999Z,11.77
2023-06-19T01:47:37.012Z,14.97
2023-06-19T01:50:03.981Z,10.90
2023-06-19T01:52:30.947Z,11.17
2023-06-19T01:54:57.718Z,12.50
2023-06-19T01:57:24.670Z,11.47
2023-06-19T01:59:51.572Z,12.57
2023-06-19T02:02:18.916Z,11.33
2023-06-19T02:04:49.263Z,12.40
2023-06-19T02:07:16.148Z,12.43
2023-06-19T02:09:43.094Z,11.30
2023-06-19T02:12:13.292Z,12.27
2023-06-19T02:14:40.519Z,12.13
2023-06-19T02:17:07.457Z,13.10
2023-06-19T02:19:36.106Z,11.27
2023-06-19T02:22:03.046Z,12.33
2023-06-19T02:24:32.127Z,12.53
2023-06-19T02:27:03.366Z,12.57
2023-06-19T02:29:34.952Z,11.57
2023-06-19T02:32:04.388Z,12.07
2023-06-19T02:34:31.287Z,13.40
2023-06-19T02:37:00.378Z,10.50
2023-06-19T02:39:30.338Z,12.17
2023-06-19T02:41:59.392Z,12.20
2023-06-19T02:44:26.322Z,10.87
2023-06-19T02:46:53.358Z,14.40
2023-06-19T02:49:24.730Z,14.23
2023-06-19T02:51:55.983Z,11.97
2023-06-19T02:54:25.053Z,13.77
2023-06-19T02:56:54.144Z,15.07
2023-06-19T02:59:21.106Z,11.20
2023-06-19T03:01:50.537Z,10.80
2023-06-19T03:04:19.983Z,13.77
2023-06-19T03:06:46.778Z,16.03
2023-06-19T03:09:18.313Z,15.03
2023-06-19T03:11:45.368Z,12.73
2023-06-19T03:14:12.382Z,11.33
2023-06-19T03:16:39.261Z,13.97
2023-06-19T03:19:08.703Z,12.03
2023-06-19T03:21:40.227Z,12.77
2023-06-19T03:24:07.364Z,12.23
2023-06-19T03:26:34.355Z,10.67
2023-06-19T03:29:01.239Z,11.13
2023-06-19T03:31:28.118Z,18.00
2023-06-19T03:33:54.933Z,13.90
2023-06-19T03:36:26.926Z,12.40
2023-06-19T03:38:56.830Z,15.90
2023-06-19T03:41:23.856Z,21.03
2023-06-19T03:43:50.772Z,15.83
2023-06-19T03:46:22.196Z,13.87
2023-06-19T03:48:49.383Z,16.70
2023-06-19T03:51:16.315Z,12.67
2023-06-19T03:53:43.534Z,19.30
2023-06-19T03:56:10.446Z,19.03
2023-06-19T03:58:37.348Z,17.10
2023-06-19T04:01:04.753Z,13.70
2023-06-19T04:03:33.936Z,15.17
2023-06-19T04:06:00.880Z,14.97
2023-06-19T04:08:29.986Z,15.90
2023-06-19T04:10:59.301Z,19.57
2023-06-19T04:13:27.194Z,19.30
2023-06-19T04:15:54.164Z,17.80
2023-06-19T04:18:24.015Z,20.17
2023-06-19T04:20:50.829Z,20.23
2023-06-19T04:23:18.766Z,19.40
2023-06-19T04:25:45.582Z,16.10
2023-06-19T04:28:14.634Z,15.03
2023-06-19T04:30:41.574Z,19.40
2023-06-19T04:33:10.891Z,15.07
2023-06-19T04:35:43.760Z,15.50
2023-06-19T04:38:15.940Z,14.67
2023-06-19T04:40:44.534Z,15.17
2023-06-19T04:43:11.858Z,16.27
2023-06-19T04:45:39.263Z,14.50
2023-06-19T04:48:06.217Z,17.63
2023-06-19T04:50:33.155Z,13.00
2023-06-19T04:53:00.036Z,17.27
2023-06-19T04:55:26.983Z,13.97
2023-06-19T04:57:56.098Z,12.63
2023-06-19T05:00:24.872Z,14.27
2023-06-19T05:02:52.093Z,16.10
2023-06-19T05:05:24.841Z,13.33
2023-06-19T05:07:52.111Z,12.23
2023-06-19T05:10:20.245Z,14.07
2023-06-19T05:12:47.038Z,15.40
2023-06-19T05:15:18.609Z,13.67
2023-06-19T05:17:47.639Z,19.33
2023-06-19T05:20:14.909Z,15.07
2023-06-19T05:22:41.755Z,11.47
2023-06-19T05:25:09.148Z,12.60
2023-06-19T05:27:38.466Z,17.50
2023-06-19T05:30:08.518Z,17.50
2023-06-19T05:32:35.601Z,12.23
2023-06-19T05:35:02.478Z,12.70
2023-06-19T05:37:29.400Z,10.13
2023-06-19T05:39:58.756Z,10.97
2023-06-19T05:42:33.007Z,10.37
2023-06-19T05:44:59.856Z,11.87
2023-06-19T05:47:29.917Z,10.02
2023-06-19T05:49:59.405Z,9.50
2023-06-19T05:52:26.411Z,10.57
2023-06-19T05:54:59.604Z,10.17
2023-06-19T05:57:29.171Z,12.63
2023-06-19T05:59:56.099Z,11.00
2023-06-19T06:02:25.471Z,11.35
2023-06-19T06:04:52.510Z,8.82
2023-06-19T06:07:19.430Z,8.20
2023-06-19T06:09:49.636Z,8.60
2023-06-19T06:12:16.533Z,7.05
2023-06-19T06:14:45.761Z,6.63
2023-06-19T06:17:15.071Z,6.28
2023-06-19T06:19:44.352Z,7.40
2023-06-19T06:22:15.708Z,8.35
2023-06-19T06:24:45.149Z,6.53
2023-06-19T06:27:12.998Z,6.65
2023-06-19T06:29:42.422Z,6.47
2023-06-19T06:32:10.788Z,6.63
2023-06-19T06:34:37.723Z,9.38
2023-06-19T06:37:07.219Z,6.22
2023-06-19T06:39:34.405Z,7.28
2023-06-19T06:42:01.359Z,8.15
2023-06-19T06:44:28.214Z,7.72
2023-06-19T06:46:57.313Z,8.00
2023-06-19T06:49:24.169Z,6.25
2023-06-19T06:51:54.851Z,5.78
2023-06-19T06:54:25.602Z,7.78
2023-06-19T06:56:57.736Z,6.55
2023-06-19T06:59:28.377Z,7.97
2023-06-19T07:01:56.050Z,5.90
2023-06-19T07:04:25.308Z,6.93
2023-06-19T07:06:52.309Z,10.57
2023-06-19T07:09:19.314Z,7.47
2023-06-19T07:11:46.295Z,7.65
2023-06-19T07:14:15.843Z,8.82
2023-06-19T07:16:44.900Z,7.25
2023-06-19T07:19:17.165Z,13.07
2023-06-19T07:21:44.788Z,8.38
2023-06-19T07:24:16.462Z,9.32
2023-06-19T07:26:43.354Z,11.70
2023-06-19T07:29:10.244Z,9.15
2023-06-19T07:31:37.169Z,8.18
2023-06-19T07:34:04.067Z,7.70
2023-06-19T07:36:33.470Z,7.65
2023-06-19T07:39:00.302Z,8.00
2023-06-19T07:41:29.316Z,7.55
2023-06-19T07:43:58.475Z,11.27
2023-06-19T07:46:25.404Z,7.88
2023-06-19T07:48:52.265Z,8.73
2023-06-19T07:51:19.163Z,10.02
2023-06-19T07:53:46.063Z,8.05
2023-06-19T07:56:12.965Z,10.38
2023-06-19T07:58:39.824Z,10.30
2023-06-19T08:01:06.790Z,9.85
2023-06-19T08:03:33.813Z,8.25
2023-06-19T08:06:00.954Z,9.70
2023-06-19T08:08:27.943Z,7.95
2023-06-19T08:10:54.910Z,14.75
2023-06-19T08:13:21.820Z,9.98
2023-06-19T08:15:48.672Z,9.10
2023-06-19T08:18:18.614Z,9.38
2023-06-19T08:20:45.520Z,8.75
2023-06-19T08:23:12.382Z,10.38
2023-06-19T08:25:39.321Z,9.30
2023-06-19T08:28:06.510Z,9.27
2023-06-19T08:30:33.461Z,8.00
2023-06-19T08:33:00.373Z,11.65
2023-06-19T08:35:27.293Z,7.30
2023-06-19T08:37:54.157Z,6.32
2023-06-19T08:40:21.173Z,7.60
2023-06-19T08:42:50.364Z,6.53
2023-06-19T08:45:19.858Z,8.88
2023-06-19T08:47:46.782Z,7.85
2023-06-19T08:50:13.698Z,8.32
2023-06-19T08:52:43.091Z,6.70
2023-06-19T08:55:10.230Z,6.40
2023-06-19T08:57:40.772Z,6.32
2023-06-19T09:00:09.258Z,7.28
2023-06-19T09:02:41.866Z,7.88
2023-06-19T09:05:17.825Z,7.93
2023-06-19T09:07:56.169Z,6.25
2023-06-19T09:10:25.313Z,8.90
2023-06-19T09:12:59.677Z,7.72
2023-06-19T09:15:32.053Z,6.22
2023-06-19T09:18:05.884Z,7.22
2023-06-19T09:20:34.151Z,5.65
2023-06-19T09:23:03.236Z,5.63
2023-06-19T09:25:30.228Z,6.78
2023-06-19T09:27:59.321Z,7.53
2023-06-19T09:30:28.892Z,8.98
2023-06-19T09:32:55.908Z,8.45
2023-06-19T09:35:22.984Z,9.10
2023-06-19T09:37:49.839Z,8.48
2023-06-19T09:40:16.814Z,5.72
2023-06-19T09:42:44.272Z,6.05
2023-06-19T09:45:16.887Z,6.32
2023-06-19T09:47:50.259Z,6.30
2023-06-19T09:50:20.215Z,5.55
2023-06-19T09:52:52.604Z,7.85
2023-06-19T09:55:22.270Z,5.97
2023-06-19T09:57:51.392Z,8.38
2023-06-19T10:00:23.560Z,5.82
2023-06-19T10:02:50.795Z,8.25
2023-06-19T10:05:20.921Z,7.75
2023-06-19T10:07:50.776Z,5.88
2023-06-19T10:10:25.719Z,8.43
2023-06-19T10:12:56.960Z,6.15
2023-06-19T10:15:28.428Z,5.53
2023-06-19T10:18:00.339Z,6.30
2023-06-19T10:20:46.291Z,6.57
2023-06-19T10:23:19.433Z,5.55
2023-06-19T10:26:01.026Z,5.68
2023-06-19T10:28:36.030Z,8.90
2023-06-19T10:31:10.970Z,8.32
2023-06-19T10:33:38.289Z,5.93
2023-06-19T10:36:23.970Z,7.53
2023-06-19T10:38:52.159Z,7.57
2023-06-19T10:41:19.659Z,5.47
2023-06-19T10:43:58.320Z,5.32
2023-06-19T10:46:25.541Z,5.85
2023-06-19T10:48:52.780Z,6.68
2023-06-19T10:51:22.660Z,5.22
2023-06-19T10:53:51.934Z,6.72
2023-06-19T10:56:24.472Z,5.45
2023-06-19T10:59:01.705Z,4.32
2023-06-19T11:01:36.043Z,4.97
2023-06-19T11:04:06.958Z,4.75
2023-06-19T11:06:36.336Z,4.85
2023-06-19T11:09:06.451Z,5.53
2023-06-19T11:11:40.782Z,4.57
2023-06-19T11:14:07.861Z,3.88
2023-06-19T11:16:42.835Z,3.78
2023-06-19T11:19:10.734Z,4.22
2023-06-19T11:21:40.461Z,3.90
2023-06-19T11:24:13.299Z,3.85
2023-06-19T11:26:45.023Z,4.00
2023-06-19T11:29:22.206Z,4.93
2023-06-19T11:31:51.878Z,6.57
2023-06-19T11:34:20.934Z,4.97
2023-06-19T11:36:50.396Z,4.55
2023-06-19T11:39:18.059Z,5.05
2023-06-19T11:41:45.571Z,7.45
2023-06-19T11:44:14.874Z,5.68
2023-06-19T11:46:42.377Z,4.78
2023-06-19T11:49:15.536Z,3.80
2023-06-19T11:51:42.529Z,4.18
2023-06-19T11:54:10.622Z,6.20
2023-06-19T11:56:40.821Z,4.32
2023-06-19T11:59:12.459Z,5.68
2023-06-19T12:01:39.963Z,7.18
2023-06-19T12:04:07.618Z,5.53
2023-06-19T12:06:38.052Z,6.13
2023-06-19T12:09:07.778Z,4.68
2023-06-19T12:11:34.655Z,4.15
2023-06-19T12:14:01.733Z,4.93
2023-06-19T12:16:30.890Z,3.88
2023-06-19T12:18:57.788Z,4.45
2023-06-19T12:21:35.750Z,4.05
2023-06-19T12:24:08.367Z,6.57
2023-06-19T12:26:39.048Z,4.68
2023-06-19T12:29:08.287Z,4.00
2023-06-19T12:31:35.812Z,7.28
2023-06-19T12:34:08.121Z,5.18
2023-06-19T12:36:40.691Z,6.82
2023-06-19T12:39:15.737Z,4.28
2023-06-19T12:41:44.895Z,6.40
2023-06-19T12:44:11.838Z,10.35
2023-06-19T12:46:38.953Z,4.72
2023-06-19T12:49:05.933Z,4.07
2023-06-19T12:51:35.482Z,3.85
2023-06-19T12:54:02.421Z,4.10
2023-06-19T12:56:29.450Z,4.20
2023-06-19T12:58:56.329Z,4.22
2023-06-19T13:01:25.426Z,5.18
2023-06-19T13:03:52.409Z,4.20
2023-06-19T13:06:20.480Z,6.15
2023-06-19T13:08:49.859Z,4.30
2023-06-19T13:11:16.838Z,3.95
2023-06-19T13:13:43.764Z,8.75
2023-06-19T13:16:17.208Z,5.10
2023-06-19T13:18:44.079Z,6.38
2023-06-19T13:21:10.969Z,4.70
2023-06-19T13:23:37.811Z,4.38
2023-06-19T13:26:07.277Z,4.22
2023-06-19T13:28:36.703Z,3.85
2023-06-19T13:31:04.038Z,6.75
2023-06-19T13:33:33.124Z,6.00
2023-06-19T13:36:00.090Z,4.50
2023-06-19T13:38:26.986Z,4.25
2023-06-19T13:40:56.388Z,4.53
2023-06-19T13:43:26.051Z,4.80
2023-06-19T13:45:55.385Z,5.45
2023-06-19T13:48:22.231Z,6.43
2023-06-19T13:50:49.074Z,4.50
2023-06-19T13:53:18.707Z,7.40
2023-06-19T13:55:45.506Z,4.05
2023-06-19T13:58:12.327Z,6.13
2023-06-19T14:00:39.762Z,4.35
2023-06-19T14:03:08.438Z,4.95
2023-06-19T14:05:38.655Z,5.53
2023-06-19T14:08:06.639Z,6.53
2023-06-19T14:10:33.478Z,3.65
2023-06-19T14:13:00.327Z,3.58
2023-06-19T14:15:29.490Z,4.18
2023-06-19T14:17:56.899Z,4.03
2023-06-19T14:20:26.562Z,4.35
2023-06-19T14:22:54.487Z,3.08
2023-06-19T14:25:21.570Z,3.67
2023-06-19T14:27:50.979Z,3.28
2023-06-19T14:30:18.037Z,4.57
2023-06-19T14:32:44.985Z,3.80
2023-06-19T14:35:11.927Z,3.22
2023-06-19T14:37:38.889Z,5.15
2023-06-19T14:40:06.491Z,3.38
2023-06-19T14:42:35.883Z,3.78
2023-06-19T14:45:02.890Z,4.68
2023-06-19T14:47:30.306Z,3.15
2023-06-19T14:49:57.397Z,2.80
2023-06-19T14:52:24.205Z,5.30
2023-06-19T14:54:51.110Z,2.80
2023-06-19T14:57:20.087Z,3.08
2023-06-19T14:59:49.199Z,2.97
2023-06-19T15:02:18.194Z,3.83
2023-06-19T15:04:57.081Z,2.85
2023-06-19T15:07:31.850Z,6.53
2023-06-19T15:09:58.667Z,2.88
2023-06-19T15:12:25.485Z,4.78
2023-06-19T15:14:54.463Z,2.95
2023-06-19T15:17:21.393Z,4.78
2023-06-19T15:19:48.445Z,7.50
2023-06-19T15:22:15.362Z,4.35
2023-06-19T15:24:42.213Z,4.65
2023-06-19T15:27:09.223Z,3.70
2023-06-19T15:29:36.735Z,3.53
2023-06-19T15:32:03.638Z,3.42
2023-06-19T15:34:30.536Z,3.88
2023-06-19T15:36:57.497Z,4.50
2023-06-19T15:39:24.582Z,3.47
2023-06-19T15:41:51.648Z,3.90
2023-06-19T15:44:18.504Z,4.63
2023-06-19T15:46:45.416Z,4.88
2023-06-19T15:49:18.791Z,4.75
2023-06-19T15:51:45.921Z,4.72
2023-06-19T15:54:12.855Z,4.72
2023-06-19T15:56:43.528Z,4.97
2023-06-19T15:59:10.469Z,4.13
2023-06-19T16:01:42.008Z,6.97
2023-06-19T16:04:09.050Z,4.43
2023-06-19T16:06:35.973Z,3.50
2023-06-19T16:09:05.828Z,6.20
2023-06-19T16:11:35.276Z,4.25
2023-06-19T16:14:02.212Z,4.68
2023-06-19T16:16:29.143Z,3.97
2023-06-19T16:18:56.075Z,3.50
2023-06-19T16:21:23.358Z,4.45
2023-06-19T16:23:50.228Z,4.22
2023-06-19T16:26:20.652Z,5.07
2023-06-19T16:28:47.548Z,5.35
2023-06-19T16:31:15.843Z,5.30
2023-06-19T16:33:42.709Z,4.45
2023-06-19T16:36:14.779Z,4.80
2023-06-19T16:38:41.646Z,4.18
2023-06-19T16:41:20.766Z,4.65
2023-06-19T16:43:50.244Z,5.25
2023-06-19T16:46:17.166Z,4.30
2023-06-19T16:48:44.100Z,5.80
2023-06-19T16:51:11.018Z,4.78
2023-06-19T16:53:40.370Z,5.60
2023-06-19T16:56:07.213Z,5.10
2023-06-19T16:58:36.640Z,6.68
2023-06-19T17:01:03.759Z,5.05
2023-06-19T17:03:30.681Z,5.30
2023-06-19T17:05:57.676Z,5.95
2023-06-19T17:08:24.810Z,6.47
2023-06-19T17:10:51.745Z,4.47
2023-06-19T17:13:18.652Z,5.25
2023-06-19T17:15:52.918Z,4.78
2023-06-19T17:18:22.004Z,4.68
2023-06-19T17:20:49.143Z,5.05
2023-06-19T17:23:16.044Z,6.15
2023-06-19T17:25:43.193Z,4.93
2023-06-19T17:28:10.075Z,4.85
2023-06-19T17:30:47.851Z,5.13
2023-06-19T17:33:14.814Z,5.65
2023-06-19T17:35:52.270Z,6.45
2023-06-19T17:38:21.654Z,7.35
2023-06-19T17:40:48.617Z,5.10
2023-06-19T17:43:15.508Z,4.80
2023-06-19T17:45:45.545Z,7.82
2023-06-19T17:48:14.557Z,7.18
2023-06-19T17:51:31.083Z,5.80
2023-06-19T17:53:58.315Z,6.95
2023-06-19T17:56:51.362Z,5.25
2023-06-19T17:59:18.324Z,5.78
2023-06-19T18:01:45.221Z,5.00
2023-06-19T18:04:14.521Z,5.88
2023-06-19T18:06:41.478Z,5.80
2023-06-19T18:09:09.028Z,4.93
2023-06-19T18:11:36.054Z,7.00
2023-06-19T18:14:03.022Z,5.63
2023-06-19T18:16:29.964Z,6.53
2023-06-19T18:18:56.944Z,5.53
2023-06-19T18:21:23.845Z,5.70
2023-06-19T18:23:50.932Z,7.13
2023-06-19T18:26:17.943Z,8.40
2023-06-19T18:28:44.757Z,9.13
2023-06-19T18:31:14.876Z,6.10
2023-06-19T18:33:41.688Z,7.35
2023-06-19T18:36:10.736Z,7.03
2023-06-19T18:38:43.134Z,8.40
2023-06-19T18:41:10.054Z,7.55
2023-06-19T18:43:36.981Z,7.90
2023-06-19T18:46:03.935Z,6.35
2023-06-19T18:48:30.985Z,11.38
2023-06-19T18:50:58.111Z,10.68
2023-06-19T18:53:32.678Z,7.20
2023-06-19T18:55:59.634Z,10.65
2023-06-19T18:58:26.520Z,6.60
2023-06-19T19:00:53.460Z,11.95
2023-06-19T19:03:20.398Z,7.40
2023-06-19T19:05:48.951Z,11.48
2023-06-19T19:08:15.971Z,6.60
2023-06-19T19:10:45.302Z,6.13
2023-06-19T19:13:12.257Z,7.03
2023-06-19T19:15:39.154Z,11.05
2023-06-19T19:18:09.834Z,11.02
2023-06-19T19:20:36.656Z,7.35
2023-06-19T19:23:09.271Z,9.38
2023-06-19T19:25:36.229Z,9.48
2023-06-19T19:28:03.179Z,11.80
2023-06-19T19:30:32.583Z,9.95
2023-06-19T19:32:59.601Z,9.05
2023-06-19T19:35:26.487Z,10.07
2023-06-19T19:38:22.642Z,9.65
2023-06-19T19:40:54.208Z,13.32
2023-06-19T19:43:21.074Z,20.20
2023-06-19T19:45:47.953Z,12.85
2023-06-19T19:48:14.887Z,13.02
2023-06-19T19:50:41.737Z,10.77
2023-06-19T19:53:08.549Z,9.77
2023-06-19T19:55:35.680Z,9.88
2023-06-19T19:58:03.336Z,11.98
2023-06-19T20:00:30.327Z,12.55
2023-06-19T20:03:02.833Z,11.70
2023-06-19T20:05:29.830Z,8.45
2023-06-19T20:07:59.125Z,10.52
2023-06-19T20:10:26.244Z,11.70
2023-06-19T20:12:53.196Z,11.40
2023-06-19T20:15:20.006Z,12.75
2023-06-19T20:17:46.980Z,12.23
2023-06-19T20:20:18.609Z,14.27
2023-06-19T20:22:47.864Z,8.57
2023-06-19T20:25:16.820Z,10.45
2023-06-19T20:27:58.803Z,13.88
2023-06-19T20:30:33.170Z,11.82
2023-06-19T20:33:00.337Z,11.98
2023-06-19T20:35:27.258Z,10.35
2023-06-19T20:37:54.219Z,9.25
2023-06-19T20:40:21.210Z,10.38
2023-06-19T20:42:52.217Z,11.95
2023-06-19T20:45:19.945Z,15.88
2023-06-19T20:47:46.864Z,11.65
2023-06-19T20:50:15.243Z,12.65
2023-06-19T20:52:42.140Z,9.52
2023-06-19T20:55:09.568Z,13.82
2023-06-19T20:57:36.455Z,13.68
2023-06-19T21:00:10.639Z,11.38
2023-06-19T21:02:38.732Z,12.13
2023-06-19T21:05:06.445Z,12.85
2023-06-19T21:07:35.167Z,9.88
2023-06-19T21:10:02.135Z,15.05
2023-06-19T21:12:28.994Z,12.55
2023-06-19T21:14:58.344Z,12.10
2023-06-19T21:17:32.723Z,16.50
2023-06-19T21:19:59.666Z,11.32
2023-06-19T21:22:26.583Z,16.75
2023-06-19T21:24:55.961Z,14.32
2023-06-19T21:27:25.481Z,10.52
2023-06-19T21:29:52.423Z,14.35
2023-06-19T21:32:19.245Z,13.90
2023-06-19T21:34:46.055Z,17.42
2023-06-19T21:37:12.908Z,11.55
2023-06-19T21:39:39.845Z,15.40
2023-06-19T21:42:10.295Z,10.32
2023-06-19T21:44:37.461Z,12.32
2023-06-19T21:47:04.467Z,12.73
2023-06-19T21:49:31.263Z,15.65
2023-06-19T21:51:58.112Z,17.17
2023-06-19T21:54:25.491Z,15.82
2023-06-19T21:56:53.109Z,18.63
2023-06-19T21:59:20.357Z,14.63
2023-06-19T22:01:47.737Z,17.10
2023-06-19T22:04:16.018Z,15.50
2023-06-19T22:06:43.746Z,11.77
2023-06-19T22:09:10.810Z,14.85
2023-06-19T22:11:37.729Z,14.70
2023-06-19T22:14:04.995Z,18.05
2023-06-19T22:16:32.736Z,15.73
2023-06-19T22:19:03.564Z,17.10
2023-06-19T22:21:30.800Z,11.98
2023-06-19T22:23:58.090Z,14.90
2023-06-19T22:26:24.972Z,13.75
2023-06-19T22:28:54.494Z,19.88
2023-06-19T22:31:23.668Z,17.02
2023-06-19T22:33:50.948Z,15.55
2023-06-19T22:36:17.878Z,12.65
2023-06-19T22:38:44.709Z,15.98
2023-06-19T22:41:16.739Z,16.23
2023-06-19T22:43:45.827Z,16.58
2023-06-19T22:46:13.852Z,20.33
2023-06-19T22:48:43.987Z,13.90
2023-06-19T22:51:11.537Z,15.20
2023-06-19T22:53:38.847Z,15.57
2023-06-19T22:56:07.782Z,14.32
2023-06-19T22:58:34.724Z,12.40
2023-06-19T23:01:01.703Z,13.57
2023-06-19T23:03:28.815Z,13.27
2023-06-19T23:05:56.161Z,14.98
2023-06-19T23:08:23.372Z,13.63
2023-06-19T23:10:50.172Z,13.95
2023-06-19T23:13:16.946Z,16.67
2023-06-19T23:15:45.920Z,11.80
2023-06-19T23:18:13.376Z,11.52
2023-06-19T23:20:42.374Z,17.23
2023-06-19T23:23:09.608Z,16.67
2023-06-19T23:25:36.816Z,14.13
2023-06-19T23:28:08.106Z,14.90
2023-06-19T23:30:36.116Z,15.20
2023-06-19T23:33:05.531Z,16.55
2023-06-19T23:35:32.639Z,16.10
2023-06-19T23:37:59.500Z,12.85
2023-06-19T23:40:27.999Z,15.07
2023-06-19T23:42:55.136Z,13.88
2023-06-19T23:45:22.139Z,14.38
2023-06-19T23:47:51.252Z,17.35
2023-06-19T23:50:18.238Z,17.13
2023-06-19T23:52:47.209Z,16.13
2023-06-19T23:55:14.438Z,14.23
2023-06-19T23:57:41.458Z,13.07
